Photometre #346[Polarized_P] OHP_OBSERVATOIRE AOT

File : 20190927_346.hum

27/09/2019,06:19:38,TEMP=14.9,BA=5.64,STAT.A=Abs.,ExtBa=13.72
27/09/2019,06:23:14,TEMP=15.5,BA=5.60,STAT.A=Abs.,ExtBa=13.71
27/09/2019,06:27:27,TEMP=15.8,BA=5.60,STAT.A=Abs.,ExtBa=13.72
27/09/2019,06:32:27,TEMP=16.4,BA=5.64,STAT.A=Abs.,ExtBa=13.74
27/09/2019,06:38:29,TEMP=17.0,BA=5.64,STAT.A=Abs.,ExtBa=13.74
27/09/2019,06:45:57,TEMP=18.0,BA=5.56,STAT.A=Abs.,ExtBa=13.74
27/09/2019,06:55:23,TEMP=19.2,BA=5.64,STAT.B=Abs.,ExtBa=13.74
27/09/2019,07:01:59,TEMP=20.0,BA=5.52,STAT.A=Abs.,ExtBa=13.03
27/09/2019,07:04:59,TEMP=20.1,BA=5.52,STAT.A=Abs.,ExtBa=13.18
27/09/2019,07:10:43,TEMP=20.4,BA=5.64,STAT.A=Abs.,ExtBa=13.46
27/09/2019,07:17:14,TEMP=21.1,BA=5.64,STAT.A=Abs.,ExtBa=13.67
27/09/2019,07:24:45,TEMP=21.8,BA=5.64,STAT.C=Abs.,ExtBa=13.79
27/09/2019,07:37:44,TEMP=23.5,BA=5.52,STAT.A=Abs.,ExtBa=12.96
27/09/2019,07:43:52,TEMP=22.4,BA=5.64,STAT.A=Abs.,ExtBa=13.37
27/09/2019,07:56:23,TEMP=22.8,BA=5.64,STAT.A=Abs.,ExtBa=13.86
27/09/2019,08:11:52,TEMP=24.2,BA=5.64,STAT.A=Abs.,ExtBa=13.92
27/09/2019,08:28:50,TEMP=25.0,BA=5.64,STAT.F
27/09/2019,08:43:48,TEMP=25.0,BA=5.52,STAT.D=Abs.,ExtBa=13.20
27/09/2019,08:58:48,TEMP=25.0,BA=5.64,STAT.D=Abs.,ExtBa=13.94
27/09/2019,09:13:48,TEMP=25.5,BA=5.64,STAT.D=Abs.,ExtBa=13.92
27/09/2019,09:28:50,TEMP=26.3,BA=5.64,STAT.F
27/09/2019,09:44:32,TEMP=26.8,BA=5.52,STAT.D=Abs.,ExtBa=13.28
27/09/2019,09:58:48,TEMP=26.8,BA=5.64,STAT.D=Abs.,ExtBa=13.93
27/09/2019,10:13:46,TEMP=27.1,BA=5.64,STAT.D=Abs.,ExtBa=13.92
27/09/2019,10:28:50,TEMP=27.1,BA=5.64,STAT.F
27/09/2019,10:43:48,TEMP=27.6,BA=5.52,STAT.D=Abs.,ExtBa=13.26
27/09/2019,10:58:48,TEMP=27.3,BA=5.60,STAT.D=Abs.,ExtBa=13.95
27/09/2019,11:13:48,TEMP=27.5,BA=5.64,STAT.D=Abs.,ExtBa=13.88
27/09/2019,11:28:50,TEMP=27.6,BA=5.64,STAT.F
27/09/2019,11:43:48,TEMP=27.8,BA=5.48,STAT.D=Abs.,ExtBa=13.25
27/09/2019,11:58:48,TEMP=27.0,BA=5.60,STAT.D=Abs.,ExtBa=13.93
27/09/2019,12:13:48,TEMP=27.6,BA=5.64,STAT.D=Abs.,ExtBa=13.86
27/09/2019,12:28:50,TEMP=27.9,BA=5.64,STAT.F
27/09/2019,12:43:48,TEMP=28.2,BA=5.48,STAT.D=Abs.,ExtBa=13.25
27/09/2019,12:58:48,TEMP=27.9,BA=5.60,STAT.D=Abs.,ExtBa=13.92
27/09/2019,13:13:48,TEMP=27.7,BA=5.60,STAT.D=Abs.,ExtBa=13.85
27/09/2019,13:28:49,TEMP=27.9,BA=5.64,STAT.F
27/09/2019,13:43:48,TEMP=27.9,BA=5.48,STAT.D=Abs.,ExtBa=13.26
27/09/2019,13:58:48,TEMP=27.8,BA=5.60,STAT.D=Abs.,ExtBa=13.92
27/09/2019,14:13:48,TEMP=27.9,BA=5.64,STAT.D=Abs.,ExtBa=13.84
27/09/2019,14:28:49,TEMP=27.3,BA=5.64,STAT.F
27/09/2019,14:45:47,TEMP=27.1,BA=5.48,STAT.A=Abs.,ExtBa=13.41
27/09/2019,15:01:17,TEMP=27.0,BA=5.60,STAT.A=Abs.,ExtBa=13.93
27/09/2019,15:13:48,TEMP=27.0,BA=5.64,STAT.A=Abs.,ExtBa=13.85
27/09/2019,15:24:09,TEMP=26.5,BA=5.64,STAT.A=Abs.,ExtBa=13.82
27/09/2019,15:32:55,TEMP=26.6,BA=5.64,STAT.C=Abs.,ExtBa=13.82
27/09/2019,15:45:59,TEMP=27.0,BA=5.48,STAT.A=Abs.,ExtBa=13.01
27/09/2019,15:47:50,TEMP=26.5,BA=5.48,STAT.A=Abs.,ExtBa=13.04
27/09/2019,15:52:41,TEMP=25.5,BA=5.60,STAT.A=Abs.,ExtBa=13.36
27/09/2019,15:57:45,TEMP=25.2,BA=5.60,STAT.A=Abs.,ExtBa=13.57
27/09/2019,16:02:17,TEMP=25.2,BA=5.60,STAT.B=Abs.,ExtBa=13.69
27/09/2019,16:11:41,TEMP=24.8,BA=5.60,STAT.A=Abs.,ExtBa=13.27
27/09/2019,16:19:10,TEMP=24.6,BA=5.60,STAT.A=Abs.,ExtBa=13.68
27/09/2019,16:25:13,TEMP=24.0,BA=5.48,STAT.A=Abs.,ExtBa=13.79
27/09/2019,16:30:12,TEMP=23.6,BA=5.52,STAT.A=Abs.,ExtBa=13.83
27/09/2019,16:38:45,TEMP=23.4,BA=5.52,STAT.A=Abs.,ExtBa=13.88
27/09/2019,16:40:41,TEMP=23.7,BA=5.48,STAT.A=Abs.,ExtBa=13.73